Time;durP1;ratioP1;P1;durP2;ratioP2;P2;SDS_P1;SDS_P2;PMS_P1;PMS_P2;Temp;Humidity;BMP_temperature;BMP_pressure;BME280_temperature;BME280_humidity;BME280_pressure;Samples;Min_cycle;Max_cycle;Signal;HPM_P1;HPM_P2
2021/11/20 00:00:55;;;;;;;35.97;25.35;;;;;;;10.53;79.74;100925.63;5009861;28;20042;-73
2021/11/20 00:03:21;;;;;;;29.63;22.38;;;;;;;10.53;79.92;100922.97;5010227;28;20037;-73
2021/11/20 00:05:50;;;;;;;34.65;25.23;;;;;;;10.49;79.48;100919.59;5015305;28;20025;-72
2021/11/20 00:08:15;;;;;;;37.50;25.08;;;;;;;10.52;79.81;100922.13;5010343;28;20045;-75
2021/11/20 00:10:44;;;;;;;29.55;20.27;;;;;;;10.56;79.69;100919.38;5009124;28;20042;-74
2021/11/20 00:13:11;;;;;;;30.15;22.35;;;;;;;10.57;79.76;100918.50;5011312;28;20038;-74
2021/11/20 00:15:44;;;;;;;29.42;22.13;;;;;;;10.57;79.89;100910.59;5029906;28;20041;-73
2021/11/20 00:18:10;;;;;;;32.50;23.50;;;;;;;10.52;79.50;100922.13;5029323;28;20103;-72
2021/11/20 00:20:45;;;;;;;32.47;25.90;;;;;;;10.51;79.10;100903.75;5027357;28;20123;-72
2021/11/20 00:23:10;;;;;;;28.23;20.95;;;;;;;10.48;80.23;100912.59;5021263;28;20033;-73
2021/11/20 00:25:52;;;;;;;33.97;26.17;;;;;;;10.48;79.82;100906.44;5036944;28;20056;-73
2021/11/20 00:28:39;;;;;;;29.77;22.67;;;;;;;10.49;79.48;100909.03;5028056;28;20029;-72
2021/11/20 00:31:06;;;;;;;33.60;24.58;;;;;;;10.48;80.03;100904.69;5029063;28;20102;-72
2021/11/20 00:33:34;;;;;;;30.35;22.90;;;;;;;10.44;80.06;100899.56;5020628;28;20033;-72
2021/11/20 00:36:01;;;;;;;37.22;24.35;;;;;;;10.40;79.59;100905.81;5029326;28;20029;-73
2021/11/20 00:38:29;;;;;;;32.75;22.35;;;;;;;10.39;79.61;100904.97;5029063;28;20559;-73
2021/11/20 00:40:58;;;;;;;39.10;25.92;;;;;;;10.36;79.71;100902.44;5027464;28;20049;-73
2021/11/20 00:43:24;;;;;;;30.58;21.23;;;;;;;10.36;80.02;100897.16;5028338;28;20618;-72
2021/11/20 00:45:50;;;;;;;32.88;22.60;;;;;;;10.36;80.27;100891.88;5028834;28;20373;-72
2021/11/20 00:48:18;;;;;;;37.05;26.60;;;;;;;10.36;79.64;100888.38;5029422;28;20041;-72
2021/11/20 00:50:55;;;;;;;30.65;22.13;;;;;;;10.31;79.42;100894.66;5028697;28;20467;-73
2021/11/20 00:53:20;;;;;;;37.00;24.10;;;;;;;10.27;79.46;100892.97;5029959;28;20493;-72
2021/11/20 00:55:46;;;;;;;34.25;23.92;;;;;;;10.27;79.66;100892.97;5030675;28;20052;-73
2021/11/20 00:58:12;;;;;;;34.50;24.52;;;;;;;10.24;79.68;100892.22;5030167;28;20121;-73
2021/11/20 01:00:42;;;;;;;33.90;24.15;;;;;;;10.26;79.82;100896.53;5028410;28;20068;-71
2021/11/20 01:03:07;;;;;;;33.40;23.85;;;;;;;10.26;79.69;100898.28;5031535;28;20033;-72
2021/11/20 01:05:34;;;;;;;36.05;25.67;;;;;;;10.26;79.75;100893.03;5027598;28;20040;-73
2021/11/20 01:08:00;;;;;;;31.73;23.60;;;;;;;10.22;79.66;100888.78;5029284;28;20036;-72
2021/11/20 01:10:32;;;;;;;39.85;26.05;;;;;;;10.25;79.89;100888.66;5028078;28;20440;-73
2021/11/20 01:12:59;;;;;;;33.08;24.27;;;;;;;10.20;79.33;100877.41;5027316;28;20082;-72
2021/11/20 01:15:30;;;;;;;29.55;22.45;;;;;;;10.19;79.93;100884.47;5028982;28;20111;-73
2021/11/20 01:17:55;;;;;;;33.95;24.67;;;;;;;10.17;79.45;100882.78;5028741;28;20042;-73
2021/11/20 01:20:21;;;;;;;32.88;23.80;;;;;;;10.14;79.16;100883.72;5030699;28;20037;-71
2021/11/20 01:22:48;;;;;;;31.23;21.17;;;;;;;10.15;79.33;100880.19;5032015;28;20103;-71
2021/11/20 01:25:15;;;;;;;30.15;21.55;;;;;;;10.17;79.62;100878.38;5033020;28;20064;-71
2021/11/20 01:27:41;;;;;;;34.35;23.60;;;;;;;10.17;79.10;100874.88;5030403;28;20418;-72
2021/11/20 01:30:08;;;;;;;28.25;21.90;;;;;;;10.17;79.30;100880.13;5028513;28;20095;-73
2021/11/20 01:32:34;;;;;;;28.75;22.15;;;;;;;10.17;79.21;100878.38;5028974;28;20038;-72
2021/11/20 01:34:59;;;;;;;30.13;21.92;;;;;;;10.18;78.89;100877.44;5026658;28;20126;-72
2021/11/20 01:37:24;;;;;;;31.70;23.00;;;;;;;10.19;79.20;100873.03;5028253;28;20037;-72
2021/11/20 01:39:50;;;;;;;35.13;23.00;;;;;;;10.20;79.03;100875.63;5027781;28;20034;-72
2021/11/20 01:42:20;;;;;;;33.33;22.67;;;;;;;10.20;79.04;100875.63;5026881;28;20500;-72
2021/11/20 01:44:50;;;;;;;31.58;21.70;;;;;;;10.17;79.19;100872.25;5027736;28;20069;-73
2021/11/20 01:47:51;;;;;;;33.10;22.80;;;;;;;10.19;78.83;100865.13;5027986;28;20536;-73
2021/11/20 01:50:37;;;;;;;34.10;25.13;;;;;;;10.19;78.81;100868.66;5023080;28;20553;-73
2021/11/20 01:53:03;;;;;;;32.92;24.10;;;;;;;10.17;79.31;100866.97;5027682;28;20607;-73
2021/11/20 01:55:40;;;;;;;28.60;21.42;;;;;;;10.17;79.52;100870.47;5028463;28;20045;-73
2021/11/20 01:58:22;;;;;;;28.65;22.35;;;;;;;10.20;79.34;100861.59;5027674;28;20037;-72
2021/11/20 02:00:53;;;;;;;30.48;23.00;;;;;;;10.17;79.01;100854.66;5002954;28;20049;-72
2021/11/20 02:03:25;;;;;;;33.80;23.58;;;;;;;10.17;78.90;100849.38;5027613;28;20113;-72
2021/11/20 02:05:58;;;;;;;30.27;22.33;;;;;;;10.16;79.07;100837.09;5027377;28;20041;-72
2021/11/20 02:08:53;;;;;;;29.20;22.23;;;;;;;10.13;79.33;100825.81;5027342;28;20041;-72
2021/11/20 02:11:28;;;;;;;34.70;24.52;;;;;;;10.12;79.17;100829.34;5027093;28;20041;-72
2021/11/20 02:13:55;;;;;;;31.55;22.48;;;;;;;10.09;79.65;100823.25;5028348;28;20686;-72
2021/11/20 02:16:28;;;;;;;36.25;25.10;;;;;;;10.11;79.62;100817.94;5028770;28;20057;-72
2021/11/20 02:18:58;;;;;;;36.22;22.08;;;;;;;10.13;79.59;100825.81;5027679;28;20033;-72
2021/11/20 02:21:27;;;;;;;32.47;22.20;;;;;;;10.13;79.37;100821.38;5028566;28;20103;-72
2021/11/20 02:23:52;;;;;;;30.92;23.02;;;;;;;10.16;78.80;100823.06;5028151;28;20033;-72
2021/11/20 02:26:18;;;;;;;30.00;21.98;;;;;;;10.17;79.18;100825.66;5027952;28;20112;-72
2021/11/20 02:28:44;;;;;;;27.52;20.75;;;;;;;10.18;79.03;100824.75;5027051;28;20034;-72
2021/11/20 02:31:10;;;;;;;27.30;20.52;;;;;;;10.16;79.02;100817.78;5027580;28;20109;-72
2021/11/20 02:33:40;;;;;;;30.65;22.00;;;;;;;10.17;78.76;100809.84;5027530;28;20117;-72
2021/11/20 02:36:11;;;;;;;32.83;23.63;;;;;;;10.21;78.64;100815.88;5027447;28;20055;-72
2021/11/20 02:38:47;;;;;;;30.38;20.98;;;;;;;10.21;78.48;100818.50;5025965;28;20400;-72
2021/11/20 02:41:16;;;;;;;36.97;25.45;;;;;;;10.20;78.70;100811.53;5027822;28;20061;-72
2021/11/20 02:43:46;;;;;;;27.45;22.08;;;;;;;10.16;78.90;100809.88;5027130;28;20189;-72
2021/11/20 02:46:15;;;;;;;30.83;23.55;;;;;;;10.16;79.31;100801.97;5027045;28;20038;-72
2021/11/20 02:48:41;;;;;;;34.00;23.48;;;;;;;10.16;78.98;100812.53;5026312;28;20055;-72
2021/11/20 02:51:14;;;;;;;30.98;23.33;;;;;;;10.15;79.03;100798.50;5027278;28;20040;-73
2021/11/20 02:53:44;;;;;;;29.48;20.63;;;;;;;10.17;79.40;100793.19;5027187;28;20077;-72
2021/11/20 02:56:12;;;;;;;34.55;24.13;;;;;;;10.18;79.04;100792.25;5026934;28;20089;-72
2021/11/20 02:58:38;;;;;;;23.60;18.52;;;;;;;10.18;78.89;100792.25;5028788;28;20471;-72
2021/11/20 03:01:18;;;;;;;35.65;23.17;;;;;;;10.19;78.88;100791.34;5020295;28;20121;-72
2021/11/20 03:03:44;;;;;;;26.05;19.70;;;;;;;10.16;78.45;100787.03;5030840;28;20048;-72
2021/11/20 03:06:10;;;;;;;29.17;20.40;;;;;;;10.17;79.03;100783.50;5030826;28;20033;-72
2021/11/20 03:08:35;;;;;;;28.83;20.02;;;;;;;10.17;78.56;100786.13;5044072;28;20063;-72
2021/11/20 03:11:01;;;;;;;34.08;23.02;;;;;;;10.17;78.16;100788.78;5050130;28;20049;-71
2021/11/20 03:13:26;;;;;;;32.90;21.77;;;;;;;10.15;78.33;100781.81;5050580;28;20392;-73
2021/11/20 03:15:51;;;;;;;33.42;23.60;;;;;;;10.13;78.43;100781.00;5051005;28;20044;-72
2021/11/20 03:18:18;;;;;;;26.25;19.80;;;;;;;10.12;78.53;100776.66;5050300;28;20029;-73
2021/11/20 03:20:45;;;;;;;28.55;20.52;;;;;;;10.13;78.63;100773.94;5049630;28;20052;-71
2021/11/20 03:23:25;;;;;;;33.58;22.10;;;;;;;10.16;78.31;100773.84;5050595;28;20033;-72
2021/11/20 03:25:50;;;;;;;27.80;20.98;;;;;;;10.15;78.24;100771.28;5050649;28;20029;-71
2021/11/20 03:28:16;;;;;;;29.10;19.98;;;;;;;10.15;78.06;100761.59;5050791;28;20041;-71
2021/11/20 03:30:43;;;;;;;29.35;21.83;;;;;;;10.15;77.87;100766.88;5050436;28;20189;-72
2021/11/20 03:33:09;;;;;;;27.23;19.45;;;;;;;10.15;78.27;100761.59;5052946;28;20029;-72
2021/11/20 03:35:34;;;;;;;30.15;20.42;;;;;;;10.15;77.63;100758.09;5053132;28;20051;-71
2021/11/20 03:38:00;;;;;;;32.25;21.20;;;;;;;10.13;78.02;100757.28;5050665;28;20033;-72
2021/11/20 03:40:26;;;;;;;32.28;22.30;;;;;;;10.09;78.57;100757.41;5049831;28;20045;-73
2021/11/20 03:42:52;;;;;;;28.20;20.20;;;;;;;10.13;78.41;100747.59;5050251;28;20033;-72
2021/11/20 03:45:20;;;;;;;27.35;19.52;;;;;;;10.15;78.14;100748.44;5050104;28;20461;-73
2021/11/20 03:47:46;;;;;;;32.53;21.67;;;;;;;10.14;78.11;100753.72;5050647;28;20028;-71
2021/11/20 03:50:13;;;;;;;31.45;23.77;;;;;;;10.13;77.94;100755.50;5049334;28;20075;-72
2021/11/20 03:52:40;;;;;;;29.48;21.70;;;;;;;10.13;78.01;100746.75;5049889;28;20037;-73
2021/11/20 03:55:07;;;;;;;28.33;20.88;;;;;;;10.10;77.95;100745.94;5049904;28;20033;-71
2021/11/20 03:57:33;;;;;;;33.80;22.48;;;;;;;10.10;77.65;100737.19;5050011;28;20563;-72
2021/11/20 03:59:58;;;;;;;30.10;20.70;;;;;;;10.13;77.86;100752.03;5048912;28;20167;-72
2021/11/20 04:02:24;;;;;;;28.10;19.90;;;;;;;10.13;77.94;100750.25;5050421;28;20064;-72
2021/11/20 04:04:49;;;;;;;31.35;22.85;;;;;;;10.14;77.47;100751.09;5049869;28;20115;-73
2021/11/20 04:07:15;;;;;;;31.08;20.83;;;;;;;10.13;77.16;100747.59;5049455;28;20029;-72
2021/11/20 04:09:40;;;;;;;28.52;19.85;;;;;;;10.13;77.41;100752.03;5048065;28;20040;-72
2021/11/20 04:12:07;;;;;;;26.63;19.02;;;;;;;10.13;77.54;100752.03;5049427;28;20036;-72
2021/11/20 04:14:32;;;;;;;35.10;22.98;;;;;;;10.13;77.29;100752.03;5049539;28;20071;-72
2021/11/20 04:16:58;;;;;;;27.48;20.48;;;;;;;10.11;77.74;100752.06;5049961;28;20676;-72
2021/11/20 04:19:23;;;;;;;32.95;24.70;;;;;;;10.09;77.53;100744.22;5048281;28;20041;-72
2021/11/20 04:21:50;;;;;;;38.17;24.55;;;;;;;10.10;77.36;100745.06;5049798;28;20083;-72
2021/11/20 04:24:16;;;;;;;31.35;23.17;;;;;;;10.07;77.17;100743.41;5030988;28;20040;-71
2021/11/20 04:26:42;;;;;;;29.38;22.10;;;;;;;10.09;77.77;100746.84;5029612;28;20030;-70
2021/11/20 04:29:08;;;;;;;33.53;24.45;;;;;;;10.12;77.70;100745.91;5027268;28;20026;-73
2021/11/20 04:31:34;;;;;;;28.02;20.15;;;;;;;10.09;78.58;100740.69;5029566;28;20037;-73
2021/11/20 04:34:00;;;;;;;31.77;22.42;;;;;;;10.11;78.15;100738.88;5029705;28;20520;-72
2021/11/20 04:36:27;;;;;;;37.25;23.88;;;;;;;10.08;78.17;100739.84;5029997;28;20041;-72
2021/11/20 04:38:53;;;;;;;37.72;25.17;;;;;;;10.08;77.89;100733.72;5028682;28;20037;-73
2021/11/20 04:41:20;;;;;;;31.92;22.80;;;;;;;10.06;77.58;100730.28;5029545;28;20042;-72
2021/11/20 04:43:48;;;;;;;30.42;21.50;;;;;;;10.05;77.68;100734.69;5029602;28;20029;-72
2021/11/20 04:46:15;;;;;;;33.78;23.42;;;;;;;10.05;78.14;100732.03;5027786;28;20068;-71
2021/11/20 04:48:40;;;;;;;34.20;24.85;;;;;;;10.06;77.67;100733.75;5029002;28;20029;-71
2021/11/20 04:51:06;;;;;;;35.85;25.40;;;;;;;10.04;78.09;100727.69;5029474;28;20505;-72
2021/11/20 04:53:34;;;;;;;32.38;22.67;;;;;;;10.07;77.89;100730.22;5029608;28;20044;-72
2021/11/20 04:55:59;;;;;;;32.50;24.05;;;;;;;10.08;77.22;100725.81;5027864;28;20034;-71
2021/11/20 04:58:27;;;;;;;34.60;23.88;;;;;;;10.06;77.46;100723.22;5029570;28;20519;-72
2021/11/20 05:00:56;;;;;;;35.88;25.20;;;;;;;10.04;77.58;100716.28;5028880;28;20041;-71
2021/11/20 05:03:22;;;;;;;33.53;24.40;;;;;;;10.02;77.16;100713.72;5029697;28;20044;-71
2021/11/20 05:05:50;;;;;;;35.55;22.98;;;;;;;10.01;77.02;100711.97;5030213;28;20038;-72
2021/11/20 05:08:15;;;;;;;34.50;23.77;;;;;;;10.04;77.21;100718.91;5028824;28;20026;-72
2021/11/20 05:10:42;;;;;;;36.15;26.08;;;;;;;10.04;77.34;100727.69;5029502;28;20117;-71
2021/11/20 05:13:08;;;;;;;38.65;27.23;;;;;;;10.02;77.38;100720.75;5032763;28;20036;-73
2021/11/20 05:15:36;;;;;;;37.00;25.77;;;;;;;10.00;77.58;100717.31;5030251;28;20048;-72
2021/11/20 05:18:02;;;;;;;35.63;25.25;;;;;;;9.97;77.63;100715.63;5030965;28;20041;-72
2021/11/20 05:20:27;;;;;;;36.15;25.33;;;;;;;9.97;77.47;100715.63;5030582;28;20045;-72
2021/11/20 05:22:53;;;;;;;39.85;26.50;;;;;;;9.99;77.57;100710.28;5030278;28;20037;-72
2021/11/20 05:25:20;;;;;;;37.55;25.45;;;;;;;10.00;77.36;100710.25;5029655;28;20053;-72
2021/11/20 05:27:47;;;;;;;38.55;25.50;;;;;;;10.02;77.25;100715.50;5028794;28;20409;-72
2021/11/20 05:30:22;;;;;;;38.10;25.60;;;;;;;10.00;77.18;100720.78;5027983;28;20036;-72
2021/11/20 05:32:50;;;;;;;38.70;25.75;;;;;;;9.99;76.81;100711.19;5028304;28;22884;-71
2021/11/20 05:35:17;;;;;;;32.78;22.10;;;;;;;10.02;77.57;100700.53;5027868;28;20033;-72
2021/11/20 05:37:44;;;;;;;37.53;24.10;;;;;;;10.01;76.98;100705.84;5028309;28;20036;-72
2021/11/20 05:40:13;;;;;;;33.10;23.75;;;;;;;9.98;77.43;100706.81;5026959;28;20053;-72
2021/11/20 05:42:41;;;;;;;33.25;24.65;;;;;;;10.01;77.08;100713.75;5027641;28;20401;-72
2021/11/20 05:45:07;;;;;;;37.08;26.02;;;;;;;10.04;77.35;100705.75;5027651;28;20041;-72
2021/11/20 05:47:33;;;;;;;31.20;23.15;;;;;;;10.02;77.45;100703.16;5027695;28;20056;-72
2021/11/20 05:49:59;;;;;;;35.65;21.52;;;;;;;10.03;76.57;100701.41;5027132;28;20037;-72
2021/11/20 05:52:24;;;;;;;34.13;23.63;;;;;;;10.02;76.72;100697.91;5028124;28;20047;-71
2021/11/20 05:54:49;;;;;;;36.22;25.90;;;;;;;10.00;76.29;100691.81;5028179;28;20105;-72
2021/11/20 05:57:15;;;;;;;31.10;22.77;;;;;;;9.98;75.92;100696.28;5027686;28;20527;-72
2021/11/20 05:59:40;;;;;;;35.05;24.65;;;;;;;9.98;75.66;100691.00;5026977;28;20428;-72
2021/11/20 06:02:06;;;;;;;29.45;21.05;;;;;;;9.98;76.19;100691.00;5027450;28;20053;-72
2021/11/20 06:04:32;;;;;;;29.20;19.27;;;;;;;9.99;75.53;100698.00;5026283;28;20045;-72
2021/11/20 06:06:59;;;;;;;32.65;21.10;;;;;;;10.00;75.49;100688.31;5027576;28;20551;-72
2021/11/20 06:09:24;;;;;;;33.38;20.73;;;;;;;10.01;75.79;100690.91;5027255;28;20614;-73
2021/11/20 06:11:50;;;;;;;27.98;20.67;;;;;;;9.97;74.97;100684.03;5027675;28;20037;-72
2021/11/20 06:14:17;;;;;;;25.88;18.63;;;;;;;9.98;75.28;100690.16;5027033;28;20500;-72
2021/11/20 06:16:42;;;;;;;32.95;20.77;;;;;;;9.99;75.45;100692.75;5027254;28;20076;-72
2021/11/20 06:19:10;;;;;;;24.10;18.17;;;;;;;9.98;75.25;100692.78;5026087;28;20087;-72
2021/11/20 06:21:37;;;;;;;28.35;19.08;;;;;;;9.95;75.03;100677.94;5026729;28;20034;-72
2021/11/20 06:24:03;;;;;;;27.35;18.95;;;;;;;9.94;75.25;100681.47;5026403;28;20120;-72
2021/11/20 06:26:29;;;;;;;35.35;20.67;;;;;;;9.96;74.92;100684.91;5027228;28;20691;-72
2021/11/20 06:28:54;;;;;;;25.35;19.63;;;;;;;9.96;75.29;100681.44;5027001;28;20037;-72
2021/11/20 06:31:21;;;;;;;25.60;18.63;;;;;;;9.95;75.22;100677.09;5026851;28;20063;-72
2021/11/20 06:33:47;;;;;;;21.80;16.33;;;;;;;9.92;74.48;100677.16;5026666;28;20033;-72
2021/11/20 06:36:13;;;;;;;26.45;18.25;;;;;;;9.90;74.12;100682.50;5027064;28;20041;-72
2021/11/20 06:38:39;;;;;;;23.30;16.42;;;;;;;9.90;74.33;100679.88;5026435;28;20037;-71
2021/11/20 06:41:06;;;;;;;24.60;15.27;;;;;;;9.91;74.16;100681.56;5027026;28;20048;-69
2021/11/20 06:43:32;;;;;;;20.02;14.70;;;;;;;9.91;74.43;100678.94;5025648;28;20060;-73
2021/11/20 06:46:00;;;;;;;27.90;16.83;;;;;;;9.94;74.19;100675.34;5026921;28;20026;-73
2021/11/20 06:48:27;;;;;;;21.05;15.05;;;;;;;9.93;74.07;100679.75;5016986;28;20068;-72
2021/11/20 06:50:53;;;;;;;22.15;14.77;;;;;;;9.93;74.62;100676.25;5026173;28;20041;-73
2021/11/20 06:53:20;;;;;;;18.92;14.75;;;;;;;9.94;74.60;100683.25;5026713;28;20127;-72
2021/11/20 06:55:46;;;;;;;23.52;16.27;;;;;;;9.95;74.50;100677.94;5026983;28;20087;-72
2021/11/20 07:00:44;;;;;;;22.70;15.18;;;;;;;9.97;74.16;100685.78;5026194;28;20045;-73
2021/11/20 07:03:13;;;;;;;21.45;15.73;;;;;;;9.94;74.03;100693.78;5025643;28;20457;-73
2021/11/20 07:05:48;;;;;;;21.00;15.57;;;;;;;9.94;74.38;100696.41;5027079;28;20037;-72
2021/11/20 07:08:15;;;;;;;17.60;13.48;;;;;;;9.95;73.97;100701.66;5027129;28;20029;-73
2021/11/20 07:10:42;;;;;;;21.10;15.02;;;;;;;9.93;73.92;100700.81;5025989;28;20484;-73
2021/11/20 07:13:09;;;;;;;24.27;15.05;;;;;;;9.91;73.71;100696.53;5026671;28;20108;-72
2021/11/20 07:15:34;;;;;;;20.92;14.93;;;;;;;9.92;73.84;100692.97;5026460;28;20037;-72
2021/11/20 07:18:00;;;;;;;17.98;13.75;;;;;;;9.91;73.21;100694.75;5026540;28;20048;-72
2021/11/20 07:20:29;;;;;;;19.17;13.23;;;;;;;9.89;73.53;100699.19;5026237;28;20056;-74
2021/11/20 07:22:55;;;;;;;20.50;12.32;;;;;;;9.89;72.87;100692.19;5026753;28;20080;-72
2021/11/20 07:25:22;;;;;;;19.75;13.18;;;;;;;9.89;73.08;100684.28;5026559;28;20124;-72
2021/11/20 07:27:48;;;;;;;19.52;13.48;;;;;;;9.89;73.10;100684.28;5026444;28;20053;-72
2021/11/20 07:30:16;;;;;;;13.60;10.20;;;;;;;9.90;72.84;100674.59;5025255;28;20065;-72
2021/11/20 07:32:42;;;;;;;20.98;14.73;;;;;;;9.93;72.33;100678.91;5025156;28;20029;-73
2021/11/20 07:35:08;;;;;;;19.88;15.07;;;;;;;9.91;72.68;100684.19;5026112;28;20132;-72
2021/11/20 07:37:33;;;;;;;18.60;13.57;;;;;;;9.86;73.69;100679.09;5026702;28;20137;-72
2021/11/20 07:39:59;;;;;;;20.58;13.90;;;;;;;9.88;73.14;100679.91;5025933;28;20425;-72
2021/11/20 07:42:25;;;;;;;18.83;12.65;;;;;;;9.89;73.57;100683.38;5027183;28;20033;-73
2021/11/20 07:44:50;;;;;;;16.33;12.98;;;;;;;9.93;73.64;100677.13;5029357;28;20034;-72
2021/11/20 07:47:17;;;;;;;21.17;15.40;;;;;;;9.95;73.22;100675.31;5029769;28;20060;-73
2021/11/20 07:49:43;;;;;;;20.30;13.05;;;;;;;9.96;73.10;100677.00;5029044;28;20034;-73
2021/11/20 07:52:12;;;;;;;19.50;15.88;;;;;;;9.95;72.91;100675.31;5029445;28;20029;-72
2021/11/20 07:54:39;;;;;;;21.73;13.95;;;;;;;9.93;73.10;100673.63;5030984;28;20038;-71
2021/11/20 07:57:05;;;;;;;20.05;13.98;;;;;;;9.91;72.88;100678.09;5032823;28;20108;-72
2021/11/20 07:59:30;;;;;;;17.58;13.30;;;;;;;9.90;72.45;100671.97;5029130;28;20566;-72
2021/11/20 08:01:56;;;;;;;18.13;14.25;;;;;;;9.92;72.57;100671.88;5030392;28;20037;-72
2021/11/20 08:04:21;;;;;;;15.05;12.40;;;;;;;9.94;71.90;100667.44;5029737;28;20064;-72
2021/11/20 08:06:47;;;;;;;15.65;12.85;;;;;;;9.93;71.70;100669.22;5029410;28;20038;-73
2021/11/20 08:09:13;;;;;;;16.55;12.15;;;;;;;9.93;71.93;100669.22;5028782;28;20032;-72
2021/11/20 08:11:38;;;;;;;18.90;12.77;;;;;;;9.94;71.30;100665.66;5029723;28;20037;-73
2021/11/20 08:14:04;;;;;;;17.77;13.50;;;;;;;9.98;71.83;100655.91;5029700;28;20037;-72
2021/11/20 08:16:32;;;;;;;17.88;13.60;;;;;;;10.00;71.53;100656.72;5028969;28;20064;-72
2021/11/20 08:18:58;;;;;;;15.73;12.40;;;;;;;10.00;71.66;100654.94;5026759;28;20115;-72
2021/11/20 08:21:24;;;;;;;19.92;15.02;;;;;;;9.95;72.11;100654.22;5029393;28;20129;-72
2021/11/20 08:23:52;;;;;;;19.75;14.85;;;;;;;9.94;72.34;100655.13;5029203;28;20093;-72
2021/11/20 08:26:18;;;;;;;22.02;14.30;;;;;;;9.94;71.79;100641.09;5029577;28;20038;-73
2021/11/20 08:28:44;;;;;;;21.17;14.75;;;;;;;9.92;72.55;100650.81;5027020;28;20025;-72
2021/11/20 08:31:10;;;;;;;18.92;14.98;;;;;;;9.95;72.33;100643.69;5028998;28;20030;-72
2021/11/20 08:33:36;;;;;;;19.73;15.48;;;;;;;9.98;72.39;100648.00;5029583;28;20029;-73
2021/11/20 08:36:09;;;;;;;17.50;14.10;;;;;;;9.96;71.67;100639.28;5029377;28;20033;-72
2021/11/20 08:38:35;;;;;;;22.27;14.73;;;;;;;9.97;70.97;100641.88;5028682;28;20421;-73
2021/11/20 08:41:00;;;;;;;22.55;14.50;;;;;;;9.97;70.89;100636.59;5029218;28;20038;-73
2021/11/20 08:43:31;;;;;;;19.85;14.90;;;;;;;10.01;71.27;100625.03;5029744;28;20113;-72
2021/11/20 08:45:59;;;;;;;24.90;15.20;;;;;;;10.02;70.97;100626.78;5030193;28;20125;-73
2021/11/20 08:48:25;;;;;;;19.58;12.38;;;;;;;10.06;71.32;100636.28;5039429;28;20029;-72
2021/11/20 08:51:01;;;;;;;19.67;13.15;;;;;;;10.06;71.38;100630.16;5049204;28;20048;-74
2021/11/20 08:53:27;;;;;;;26.60;15.93;;;;;;;10.04;70.38;100627.59;5049611;28;20396;-72
2021/11/20 08:55:53;;;;;;;17.77;12.95;;;;;;;10.05;70.54;100620.53;5048379;28;20126;-74
2021/11/20 08:58:20;;;;;;;22.00;14.73;;;;;;;10.04;69.96;100618.81;5049597;28;20487;-73
2021/11/20 09:00:51;;;;;;;19.85;14.38;;;;;;;10.03;70.37;100619.72;5048481;28;20067;-73
2021/11/20 09:03:25;;;;;;;18.80;13.82;;;;;;;10.07;70.55;100621.34;5048879;28;20105;-72
2021/11/20 09:06:19;;;;;;;22.65;16.17;;;;;;;10.11;70.00;100620.31;5048971;28;20037;-73
2021/11/20 09:08:56;;;;;;;18.92;14.15;;;;;;;10.15;69.64;100615.81;5048256;28;20043;-73
2021/11/20 09:11:27;;;;;;;21.55;12.85;;;;;;;10.12;69.72;100618.56;5048382;28;20140;-72
2021/11/20 09:14:14;;;;;;;19.70;13.30;;;;;;;10.12;69.07;100613.31;5048913;28;20037;-71
2021/11/20 09:16:40;;;;;;;21.02;14.57;;;;;;;10.11;69.51;100615.06;5026435;28;20037;-73
2021/11/20 09:19:07;;;;;;;19.40;13.68;;;;;;;10.10;69.41;100621.25;5028053;28;20037;-73
2021/11/20 09:21:33;;;;;;;19.33;13.52;;;;;;;10.08;69.87;100613.38;5029188;28;20114;-73
2021/11/20 09:24:00;;;;;;;20.88;15.05;;;;;;;10.08;70.08;100610.75;5029037;28;20041;-73
2021/11/20 09:26:27;;;;;;;23.73;16.00;;;;;;;10.09;69.35;100614.25;5028911;28;20522;-72
2021/11/20 09:28:54;;;;;;;22.67;15.82;;;;;;;10.08;69.30;100616.00;5027788;28;20037;-71
2021/11/20 09:31:21;;;;;;;22.25;14.07;;;;;;;10.09;69.13;100615.13;5027850;28;20445;-73
2021/11/20 09:33:46;;;;;;;20.48;14.43;;;;;;;10.10;68.83;100608.06;5026830;28;20026;-72
2021/11/20 09:36:12;;;;;;;20.95;14.57;;;;;;;10.10;69.27;100605.44;5028630;28;20044;-74
2021/11/20 09:38:38;;;;;;;19.83;13.75;;;;;;;10.08;69.60;100605.47;5027421;28;20041;-72
2021/11/20 09:41:18;;;;;;;22.25;15.05;;;;;;;10.07;69.30;100603.78;5026313;28;20041;-72
2021/11/20 09:43:48;;;;;;;18.73;14.30;;;;;;;10.02;69.41;100604.84;5027969;28;20025;-74
2021/11/20 09:46:30;;;;;;;20.05;14.48;;;;;;;9.98;69.04;100604.06;5029612;28;20037;-73
2021/11/20 09:49:00;;;;;;;16.42;11.93;;;;;;;9.97;69.06;100598.84;5027413;28;20037;-72
2021/11/20 09:51:47;;;;;;;17.10;13.45;;;;;;;10.02;68.56;100604.84;5027749;28;20037;-72
2021/11/20 09:54:23;;;;;;;20.00;13.73;;;;;;;10.01;68.39;100600.47;5027593;28;20540;-72
2021/11/20 09:56:54;;;;;;;19.77;13.57;;;;;;;10.00;67.56;100599.63;5027444;28;20095;-72
2021/11/20 09:59:33;;;;;;;27.77;16.17;;;;;;;10.03;68.29;100594.25;5026959;28;20083;-73
2021/11/20 10:02:07;;;;;;;22.73;16.17;;;;;;;10.03;67.56;100594.25;5027337;28;20073;-72
2021/11/20 10:04:57;;;;;;;21.95;14.60;;;;;;;10.02;67.97;100586.41;5027412;28;20036;-72
2021/11/20 10:07:35;;;;;;;19.50;13.90;;;;;;;10.01;67.77;100589.94;5026973;28;20033;-73
2021/11/20 10:10:35;;;;;;;18.50;13.40;;;;;;;10.00;68.60;100588.22;5025265;28;20045;-72
2021/11/20 10:13:03;;;;;;;24.73;16.27;;;;;;;9.98;67.80;100584.78;5026473;28;20041;-73
2021/11/20 10:15:56;;;;;;;21.25;14.55;;;;;;;9.97;68.00;100591.81;5027421;28;20128;-72
2021/11/20 10:18:33;;;;;;;24.13;15.07;;;;;;;9.96;67.58;100587.44;5024641;28;20046;-73
2021/11/20 10:21:18;;;;;;;19.88;14.07;;;;;;;9.91;67.67;100584.13;5027256;28;20113;-72
2021/11/20 10:23:53;;;;;;;23.17;15.65;;;;;;;9.89;68.30;100588.56;5027026;28;20045;-72
2021/11/20 10:26:43;;;;;;;19.33;13.95;;;;;;;9.95;68.14;100579.63;5027653;28;20038;-72
2021/11/20 10:29:47;;;;;;;21.90;14.93;;;;;;;10.01;68.62;100569.72;5026987;28;20108;-72
2021/11/20 10:32:42;;;;;;;20.70;14.88;;;;;;;10.06;67.79;100572.19;5027547;28;20030;-73
2021/11/20 10:35:16;;;;;;;22.45;14.20;;;;;;;10.08;68.21;100571.22;5019239;28;20033;-72
2021/11/20 10:37:52;;;;;;;19.60;14.57;;;;;;;10.05;67.59;100566.06;5028028;28;20569;-72
2021/11/20 10:40:32;;;;;;;23.23;16.35;;;;;;;10.00;67.64;100560.09;5027409;28;20038;-73
2021/11/20 10:43:06;;;;;;;24.58;16.98;;;;;;;9.96;67.57;100555.84;5027138;28;20037;-72
2021/11/20 10:45:42;;;;;;;24.85;15.98;;;;;;;9.93;67.71;100552.47;5027209;28;20120;-72
2021/11/20 10:48:27;;;;;;;23.80;15.27;;;;;;;9.94;68.57;100552.41;5028083;28;20036;-72
2021/11/20 10:51:14;;;;;;;21.58;15.65;;;;;;;9.91;68.16;100541.97;5026217;28;20104;-72
2021/11/20 10:54:09;;;;;;;26.65;18.75;;;;;;;9.91;68.17;100547.25;5027474;28;20053;-73
2021/11/20 10:56:53;;;;;;;23.58;16.15;;;;;;;9.90;68.38;100542.91;5027570;28;20072;-73
2021/11/20 10:59:57;;;;;;;25.40;16.67;;;;;;;9.92;68.85;100537.56;5029199;28;20025;-73
2021/11/20 11:02:53;;;;;;;22.90;15.90;;;;;;;9.95;68.33;100530.44;4994180;28;20057;-74
2021/11/20 11:05:38;;;;;;;25.80;18.50;;;;;;;9.94;68.38;100525.19;5027619;28;20061;-73
2021/11/20 11:08:27;;;;;;;21.45;14.70;;;;;;;9.91;68.25;100526.16;5028341;28;20042;-72
2021/11/20 11:11:17;;;;;;;23.80;15.95;;;;;;;9.92;68.01;100512.09;5026134;28;20444;-72
2021/11/20 11:13:58;;;;;;;23.75;17.08;;;;;;;9.86;68.15;100507.91;5027446;28;20037;-73
2021/11/20 11:16:26;;;;;;;23.27;17.08;;;;;;;9.85;68.66;100510.59;5027296;28;20037;-74
2021/11/20 11:18:58;;;;;;;23.70;16.33;;;;;;;9.87;68.37;100492.97;5026784;28;20041;-72
2021/11/20 11:21:55;;;;;;;22.90;15.60;;;;;;;9.93;68.21;100486.63;5031017;28;20040;-72
2021/11/20 11:24:52;;;;;;;20.25;15.18;;;;;;;9.92;68.03;100485.78;5031141;28;20119;-72
2021/11/20 11:27:17;;;;;;;22.70;16.02;;;;;;;9.91;68.51;100483.19;5030651;28;20037;-72